TimeEDT,TemperatureF,Dew PointF,Humidity,Sea Level PressureIn,VisibilityMPH,Wind Direction,Wind SpeedMPH,Gust SpeedMPH,PrecipitationIn,Events,Conditions,WindDirDegrees,DateUTC
12:51 AM,69.1,62.1,78,30.18,10.0,East,6.9,-,N/A,,Partly Cloudy,100,2012-06-11 04:51:00
1:51 AM,70.0,60.1,71,30.17,10.0,ESE,8.1,-,0.00,Rain,Light Rain,110,2012-06-11 05:51:00
2:51 AM,69.1,61.0,75,30.17,10.0,East,6.9,-,0.00,,Mostly Cloudy,90,2012-06-11 06:51:00
3:51 AM,69.1,60.1,73,30.17,10.0,ESE,4.6,-,N/A,,Scattered Clouds,120,2012-06-11 07:51:00
4:51 AM,68.0,62.1,81,30.18,10.0,East,5.8,-,N/A,,Overcast,90,2012-06-11 08:51:00
5:51 AM,68.0,62.6,83,30.20,10.0,ESE,6.9,-,N/A,,Mostly Cloudy,110,2012-06-11 09:51:00
6:26 AM,69.8,62.6,78,30.20,9.0,ESE,5.8,-,N/A,,Overcast,120,2012-06-11 10:26:00
6:47 AM,69.8,62.6,78,30.21,9.0,Variable,6.9,-,N/A,,Overcast,0,2012-06-11 10:47:00
6:51 AM,69.1,63.0,81,30.22,9.0,East,6.9,-,N/A,,Overcast,90,2012-06-11 10:51:00
7:51 AM,70.0,60.1,71,30.23,10.0,East,6.9,-,N/A,,Mostly Cloudy,100,2012-06-11 11:51:00
8:51 AM,71.6,60.8,69,30.23,10.0,ESE,6.9,-,N/A,,Mostly Cloudy,110,2012-06-11 12:51:00
9:51 AM,73.0,60.1,64,30.24,10.0,East,8.1,-,N/A,,Mostly Cloudy,100,2012-06-11 13:51:00
10:51 AM,73.9,57.9,57,30.25,10.0,ESE,6.9,17.3,N/A,,Mostly Cloudy,120,2012-06-11 14:51:00
11:51 AM,73.0,57.0,57,30.25,10.0,SE,12.7,20.7,N/A,,Mostly Cloudy,130,2012-06-11 15:51:00
12:51 PM,73.0,52.0,48,30.25,10.0,SE,16.1,21.9,N/A,,Scattered Clouds,140,2012-06-11 16:51:00
1:51 PM,73.9,53.1,48,30.24,10.0,SE,17.3,26.5,N/A,,Mostly Cloudy,140,2012-06-11 17:51:00
2:51 PM,73.0,53.1,49,30.23,10.0,SSE,13.8,21.9,N/A,,Overcast,150,2012-06-11 18:51:00
3:51 PM,71.1,57.0,61,30.22,10.0,SE,12.7,19.6,N/A,,Overcast,130,2012-06-11 19:51:00
4:04 PM,69.8,57.2,64,30.23,10.0,SE,13.8,18.4,N/A,,Overcast,140,2012-06-11 20:04:00
4:39 PM,69.8,57.2,64,30.22,10.0,SSE,9.2,16.1,N/A,,Overcast,150,2012-06-11 20:39:00
4:51 PM,70.0,57.9,65,30.22,10.0,ESE,10.4,-,N/A,,Overcast,120,2012-06-11 20:51:00
5:51 PM,69.1,57.9,68,30.20,10.0,ESE,12.7,20.7,N/A,,Overcast,120,2012-06-11 21:51:00
6:51 PM,69.1,57.9,68,30.21,10.0,ESE,11.5,17.3,N/A,,Overcast,120,2012-06-11 22:51:00
7:51 PM,68.0,57.9,70,30.21,10.0,SE,8.1,-,N/A,,Mostly Cloudy,140,2012-06-11 23:51:00
8:51 PM,66.9,57.9,73,30.20,10.0,SE,6.9,-,N/A,,Overcast,130,2012-06-12 00:51:00
9:51 PM,66.0,59.0,78,30.20,10.0,ESE,10.4,-,N/A,,Scattered Clouds,120,2012-06-12 01:51:00
10:51 PM,66.0,60.1,81,30.20,10.0,SE,8.1,-,N/A,,Mostly Cloudy,140,2012-06-12 02:51:00
11:51 PM,66.0,61.0,84,30.19,10.0,Variable,5.8,-,N/A,,Mostly Cloudy,0,2012-06-12 03:51:00